Latest Weather Observations for Mandurah

IDW60801

Issued at 7:04 am WST Monday 20 February 2017 (issued every 30 minutes, with the page automatically refreshed every 10 minutes)

About weather observations | Map of weather stations | Latest weather observations for WA | Other Formats
Station Details ID: 009977 Name: MANDURAH Lat: -32.52 Lon: 115.71 Height: 3.0 m
Data from the previous 72 hours. | See also: Recent months at Mandurah
Date/Time
WST
Temp
°C
App
Temp
°C
Dew
Point
°C
Rel
Hum
%
Delta-T
°C
Wind Press
QNH
hPa
Press
MSL
hPa
Rain since
9am
mm
Dir  Spd
km/h
Gust
km/h
Spd
kts
Gust
kts
20/07:00am 19.1 15.6 13.5 70 3.2 S 24 35 13 19 1013.6 1013.6 0.0
20/06:30am 19.1 16.4 14.6 75 2.6 S 22 33 12 18 1013.2 1013.2 0.0
20/06:00am 19.4 17.3 15.1 76 2.5 S 20 32 11 17 1013.0 1013.0 0.0
20/05:30am 19.7 17.3 15.4 76 2.5 S 22 35 12 19 1012.7 1012.7 0.0
20/05:00am 20.1 18.4 16.3 79 2.3 S 20 30 11 16 1012.4 1012.4 0.0
20/04:30am 20.5 19.2 16.7 79 2.3 S 19 28 10 15 1012.2 1012.2 0.0
20/04:00am 20.7 19.5 17.1 80 2.2 SSW 19 30 10 16 1011.9 1011.9 0.0
20/03:30am 21.2 21.8 17.8 81 2.1 SSW 11 19 6 10 1012.0 1012.0 0.0
20/03:00am 21.3 22.1 18.1 82 2.0 SSW 11 19 6 10 1011.9 1011.9 0.0
20/02:30am 21.5 23.1 18.3 82 2.0 SSW 7 13 4 7 1011.8 1011.8 0.0
20/02:00am 21.6 23.1 18.0 80 2.2 SSW 7 13 4 7 1011.9 1011.9 0.0
20/01:30am 21.6 21.8 17.6 78 2.5 S 13 22 7 12 1012.0 1012.0 0.0
20/01:00am 21.6 21.2 18.0 80 2.2 SSW 17 24 9 13 1012.1 1012.1 0.0
20/12:30am 21.9 21.7 17.5 76 2.7 SSW 15 22 8 12 1012.3 1012.3 0.0
20/12:00am 22.2 21.4 17.1 73 3.1 SSW 17 24 9 13 1012.6 1012.6 0.0
 
Date/Time
WST
Temp
°C
App
Temp
°C
Dew
Point
°C
Rel
Hum
%
Delta-T
°C
Wind Press
QNH
hPa
Press
MSL
hPa
Rain since
9am
mm
Dir  Spd
km/h
Gust
km/h
Spd
kts
Gust
kts
19/11:30pm 22.8 22.7 17.0 70 3.6 SSW 13 20 7 11 1012.7 1012.7 0.0
19/11:00pm 23.2 23.9 17.0 68 3.8 SSW 9 19 5 10 1012.5 1012.5 0.0
19/10:30pm 23.4 24.2 17.2 68 3.8 SSW 9 15 5 8 1012.6 1012.6 0.0
19/10:00pm 23.5 23.4 17.0 67 4.0 SSW 13 17 7 9 1012.7 1012.7 0.0
19/09:30pm 23.8 24.4 16.8 65 4.3 SSW 9 15 5 8 1013.1 1013.1 0.0
19/09:00pm 24.0 24.0 16.3 62 4.7 S 11 19 6 10 1012.7 1012.7 0.0
19/08:30pm 24.2 24.0 15.7 59 5.1 SSW 11 20 6 11 1012.6 1012.6 0.0
19/08:00pm 24.7 23.4 14.8 54 5.9 SSW 15 22 8 12 1012.1 1012.1 0.0
19/07:30pm 25.9 24.2 13.7 47 7.2 SSW 15 24 8 13 1011.9 1011.9 0.0
19/07:00pm 26.7 25.2 14.1 46 7.5 SSW 15 22 8 12 1011.6 1011.6 0.0
19/06:30pm 27.8 26.4 14.4 43 8.0 SSW 15 24 8 13 1011.2 1011.2 0.0
19/06:00pm 29.6 28.8 15.0 41 8.9 S 13 19 7 10 1011.0 1011.0 0.0
19/05:30pm 29.9 28.1 14.4 38 9.4 S 17 26 9 14 1010.9 1010.9 0.0
19/05:00pm 29.7 27.6 16.1 43 8.5 SW 22 32 12 17 1011.0 1011.0 0.0
19/04:30pm 31.1 30.2 15.9 40 9.5 WSW 15 24 8 13 1011.3 1011.3 0.0
19/04:00pm 32.0 31.6 17.1 41 9.5 WSW 15 22 8 12 1011.4 1011.4 0.0
19/03:30pm 32.4 32.3 17.8 41 9.4 WSW 15 22 8 12 1011.5 1011.5 0.0
19/03:00pm 31.4 30.6 16.2 40 9.5 W 15 22 8 12 1011.8 1011.8 0.0
19/02:30pm 30.3 32.0 18.4 49 7.7 NW 7 13 4 7 1012.1 1012.1 0.0
19/02:00pm 31.6 31.3 16.4 40 9.5 WNW 13 17 7 9 1012.4 1012.4 0.0
19/01:30pm 30.7 31.0 15.9 40 9.2 WNW 9 11 5 6 1012.5 1012.5 0.0
19/01:00pm 31.0 32.2 17.3 43 8.7 NW 7 9 4 5 1012.6 1012.6 0.0
19/12:30pm 30.8 31.1 17.1 43 8.7 WNW 11 13 6 7 1012.8 1012.8 0.0
19/12:00pm 30.4 32.0 18.2 48 7.8 NW 7 11 4 6 1012.8 1012.8 0.0
19/11:30am 29.8 30.3 16.6 45 8.3 NW 9 13 5 7 1013.2 1013.2 0.0
19/11:00am 29.9 31.3 17.7 48 7.8 NNW 7 9 4 5 1013.8 1013.8 0.0
19/10:30am 28.3 28.2 16.9 50 7.1 N 13 17 7 9 1014.1 1014.1 0.0
19/10:00am 28.9 29.2 16.1 46 7.9 N 9 15 5 8 1014.1 1014.1 0.0
19/09:30am 28.9 28.2 15.4 44 8.3 NNE 13 17 7 9 1014.3 1014.3 0.0
19/09:00am 27.9 26.1 14.5 44 8.1 NE 17 20 9 11 1014.4 1014.4 0.0
19/08:30am 27.1 24.0 12.3 39 8.6 NE 20 28 11 15 1014.6 1014.6 0.0
19/08:00am 26.7 24.4 11.6 39 8.6 NE 15 20 8 11 1014.5 1014.5 0.0
19/07:30am 25.4 23.6 10.8 40 8.2 NE 11 17 6 9 1014.6 1014.6 0.0
19/07:00am 24.7 23.5 9.4 38 8.3 ENE 6 11 3 6 1014.8 1014.8 0.0
19/06:30am 24.1 22.8 9.3 39 8.0 ENE 6 13 3 7 1014.7 1014.7 0.0
19/06:00am 24.1 22.4 9.7 40 7.9 ENE 9 17 5 9 1014.4 1014.4 0.0
19/05:30am 24.2 22.2 10.1 41 7.8 NE 11 15 6 8 1014.2 1014.2 0.0
19/05:00am 24.6 22.7 10.5 41 7.8 NE 11 17 6 9 1014.2 1014.2 0.0
19/04:30am 24.6 22.6 10.1 40 8.0 NE 11 15 6 8 1014.2 1014.2 0.0
19/04:00am 24.7 22.2 8.2 35 8.8 ENE 11 20 6 11 1014.2 1014.2 0.0
19/03:30am 24.8 22.7 9.9 39 8.2 NE 11 15 6 8 1014.3 1014.3 0.0
19/03:00am 25.6 22.4 6.8 30 9.8 ENE 13 20 7 11 1014.4 1014.4 0.0
19/02:30am 25.9 21.5 6.5 29 10.1 ENE 19 32 10 17 1014.2 1014.2 0.0
19/02:00am 25.5 22.3 6.7 30 9.8 ENE 13 24 7 13 1014.5 1014.5 0.0
19/01:30am 25.2 22.6 7.8 33 9.2 E 11 19 6 10 1014.8 1014.8 0.0
19/01:00am 25.7 22.4 8.2 33 9.4 E 15 20 8 11 1014.9 1014.9 0.0
19/12:30am 26.0 22.5 8.9 34 9.3 E 17 28 9 15 1015.5 1015.5 0.0
19/12:00am 26.1 23.7 9.9 36 9.0 E 13 20 7 11 1015.7 1015.7 0.0
 
Date/Time
WST
Temp
°C
App
Temp
°C
Dew
Point
°C
Rel
Hum
%
Delta-T
°C
Wind Press
QNH
hPa
Press
MSL
hPa
Rain since
9am
mm
Dir  Spd
km/h
Gust
km/h
Spd
kts
Gust
kts
18/11:30pm 26.4 23.7 10.5 37 8.9 E 15 24 8 13 1015.9 1015.9 0.0
18/11:00pm 26.8 24.0 11.3 38 8.8 E 17 26 9 14 1016.0 1016.0 0.0
18/10:30pm 26.6 25.5 11.9 40 8.4 E 9 17 5 9 1016.2 1016.2 0.0
18/10:00pm 27.2 26.4 12.8 41 8.4 ESE 9 13 5 7 1016.2 1016.2 0.0
18/09:30pm 27.6 27.4 13.5 41 8.3 SE 7 15 4 8 1016.5 1016.5 0.0
18/09:00pm 28.3 27.9 13.0 39 9.0 ESE 7 9 4 5 1016.3 1016.3 0.0
18/08:30pm 28.8 28.2 12.2 35 9.7 ESE 7 9 4 5 1016.3 1016.3 0.0
18/08:00pm 29.2 28.4 11.7 34 10.1 ESE 7 9 4 5 1016.2 1016.2 0.0
18/07:30pm 29.9 29.5 12.3 33 10.3 E 6 7 3 4 1016.2 1016.2 0.0
18/07:00pm 31.4 30.5 11.2 29 11.7 E 7 11 4 6 1015.9 1015.9 0.0
18/06:30pm 32.4 31.2 11.6 28 12.2 ENE 9 15 5 8 1015.8 1015.8 0.0
18/06:00pm 32.7 31.3 12.3 28 12.1 NE 11 17 6 9 1015.6 1015.6 0.0
18/05:30pm 31.5 32.6 14.6 36 10.3 NNW 2 7 1 4 1015.8 1015.8 0.0
18/05:00pm 34.9 33.6 10.0 22 14.4 ESE 7 15 4 8 1015.7 1015.7 0.0
18/04:30pm 34.9 33.4 10.7 23 14.1 NE 9 15 5 8 1015.8 1015.8 0.0
18/04:00pm 34.6 33.4 11.7 25 13.5 ENE 9 15 5 8 1015.8 1015.8 0.0
18/03:30pm 34.7 33.9 13.0 27 13.1 ENE 9 15 5 8 1016.0 1016.0 0.0
18/03:00pm 34.2 32.7 13.1 28 12.7 NE 13 26 7 14 1016.2 1016.2 0.0
18/02:30pm 33.0 32.4 13.6 31 11.7 NE 9 19 5 10 1016.5 1016.5 0.0
18/02:00pm 33.4 31.7 12.4 28 12.5 NE 13 22 7 12 1016.7 1016.7 0.0
18/01:30pm 34.6 32.9 11.1 24 13.8 ENE 11 20 6 11 1017.1 1017.1 0.0
18/01:00pm 33.5 31.6 13.0 29 12.3 ENE 15 22 8 12 1017.4 1017.4 0.0
18/12:30pm 31.8 29.8 12.6 31 11.4 NE 15 24 8 13 1017.6 1017.6 0.0
18/12:00pm 31.5 29.1 12.8 32 11.1 ENE 17 26 9 14 1018.0 1018.0 0.0
18/11:30am 29.9 27.2 12.8 35 10.1 NE 19 28 10 15 1018.3 1018.3 0.0
18/11:00am 30.4 29.6 12.8 34 10.4 E 9 17 5 9 1018.6 1018.6 0.0
18/10:30am 28.8 26.5 11.8 35 9.8 E 15 22 8 12 1019.0 1019.0 0.0
18/10:00am 27.1 25.3 12.0 39 8.7 ENE 13 20 7 11 1019.4 1019.4 0.0
18/09:30am 26.1 24.0 12.5 42 7.9 ENE 15 24 8 13 1019.6 1019.6 0.0
18/09:00am 24.2 21.9 11.9 46 7.0 ENE 15 26 8 14 1019.8 1019.8 0.0
18/08:30am 22.1 21.1 12.4 54 5.5 ESE 9 19 5 10 1020.0 1020.0 0.0
18/08:00am 20.6 19.1 11.8 57 4.9 E 11 19 6 10 1019.9 1019.9 0.0
18/07:30am 19.6 17.7 11.9 61 4.3 ESE 13 20 7 11 1020.1 1020.1 0.0
18/07:00am 18.9 17.9 12.2 65 3.7 ESE 9 11 5 6 1020.0 1020.0 0.0
18/06:30am 18.2 16.6 11.7 66 3.6 E 11 22 6 12 1019.8 1019.8 0.0
18/06:00am 18.3 16.8 11.8 66 3.6 E 11 24 6 13 1019.4 1019.4 0.0
18/05:30am 18.6 17.1 11.9 65 3.7 E 11 20 6 11 1019.2 1019.2 0.0
18/05:00am 19.0 17.1 11.8 63 4.0 E 13 24 7 13 1018.9 1018.9 0.0
18/04:30am 19.6 17.0 11.9 61 4.3 E 17 26 9 14 1018.7 1018.7 0.0
18/04:00am 19.9 17.6 11.9 60 4.4 E 15 24 8 13 1018.5 1018.5 0.0
18/03:30am 20.4 18.6 12.1 59 4.6 ESE 13 22 7 12 1018.5 1018.5 0.0
18/03:00am 20.9 18.8 12.3 58 4.8 ESE 15 24 8 13 1018.7 1018.7 0.0
18/02:30am 21.3 20.0 12.4 57 5.0 E 11 22 6 12 1018.7 1018.7 0.0
18/02:00am 21.6 20.7 12.7 57 5.0 ESE 9 15 5 8 1018.8 1018.8 0.0
18/01:30am 21.9 20.2 12.5 55 5.3 ESE 13 19 7 10 1018.8 1018.8 0.0
18/01:00am 22.4 21.1 12.6 54 5.6 ESE 11 17 6 9 1018.9 1018.9 0.0
18/12:30am 23.1 20.6 12.4 51 6.1 ESE 17 24 9 13 1019.0 1019.0 0.0
18/12:00am 23.7 20.9 12.7 50 6.3 ESE 19 28 10 15 1019.0 1019.0 0.0
 
Date/Time
WST
Temp
°C
App
Temp
°C
Dew
Point
°C
Rel
Hum
%
Delta-T
°C
Wind Press
QNH
hPa
Press
MSL
hPa
Rain since
9am
mm
Dir  Spd
km/h
Gust
km/h
Spd
kts
Gust
kts
17/11:30pm 24.0 22.0 12.6 49 6.5 ESE 15 22 8 12 1019.0 1019.0 0.0
17/11:00pm 24.4 22.8 12.7 48 6.7 ESE 13 20 7 11 1018.9 1018.9 0.0
17/10:30pm 25.1 23.7 12.3 45 7.3 ESE 11 20 6 11 1018.8 1018.8 0.0
17/10:00pm 25.6 24.5 12.1 43 7.7 SE 9 15 5 8 1018.8 1018.8 0.0
17/09:30pm 26.0 24.1 11.7 41 8.2 SE 13 17 7 9 1018.6 1018.6 0.0
17/09:00pm 26.2 24.7 11.9 41 8.2 SE 11 15 6 8 1018.5 1018.5 0.0
17/08:30pm 26.9 24.9 11.4 38 8.8 SE 13 24 7 13 1018.3 1018.3 0.0
17/08:00pm 27.5 25.6 11.9 38 9.0 SE 13 19 7 10 1017.9 1017.9 0.0
17/07:30pm 28.2 26.3 11.7 36 9.5 SE 13 20 7 11 1017.7 1017.7 0.0
17/07:00pm 28.9 26.6 11.9 35 9.8 SE 15 22 8 12 1017.5 1017.5 0.0
17/06:30pm 29.7 26.5 11.2 31 10.6 ESE 19 28 10 15 1016.9 1016.9 0.0
17/06:00pm 30.5 27.2 11.0 30 11.2 SE 19 28 10 15 1016.7 1016.7 0.0
17/05:30pm 31.0 27.6 11.4 30 11.4 SE 20 26 11 14 1016.6 1016.6 0.0
17/05:00pm 31.8 29.1 11.6 29 11.8 SE 17 26 9 14 1016.4 1016.4 0.0
17/04:30pm 31.9 29.6 10.6 27 12.3 SE 13 22 7 12 1016.4 1016.4 0.0
17/04:00pm 32.5 29.7 9.9 25 12.9 ESE 15 24 8 13 1016.4 1016.4 0.0
17/03:30pm 32.1 29.4 10.2 26 12.5 ESE 15 26 8 14 1016.4 1016.4 0.0
17/03:00pm 31.6 28.7 9.8 26 12.4 ESE 15 20 8 11 1016.7 1016.7 0.0
17/02:30pm 31.7 29.4 10.4 27 12.2 ESE 13 22 7 12 1016.8 1016.8 0.0
17/02:00pm 30.9 28.6 10.3 28 11.7 SE 13 24 7 13 1017.1 1017.1 0.0
17/01:30pm 30.5 28.2 10.5 29 11.4 ESE 13 20 7 11 1017.5 1017.5 0.0
17/01:00pm 30.6 28.7 10.5 29 11.5 ESE 11 20 6 11 1017.8 1017.8 0.0
17/12:30pm 28.6 26.1 11.2 34 10.0 SE 15 22 8 12 1017.9 1017.9 0.0
17/12:00pm 28.0 25.8 10.7 34 9.8 SE 13 22 7 12 1018.2 1018.2 0.0
17/11:30am 28.4 25.9 11.0 34 9.9 E 15 24 8 13 1018.6 1018.6 0.0
17/11:00am 26.9 24.3 10.6 36 9.1 ESE 15 20 8 11 1018.9 1018.9 0.0
17/10:30am 24.7 21.5 9.8 39 8.2 ESE 17 26 9 14 1019.0 1019.0 0.0
17/10:00am 23.6 19.9 10.3 43 7.3 ESE 20 28 11 15 1019.2 1019.2 0.0
17/09:30am 22.2 18.6 10.0 46 6.6 ESE 19 28 10 15 1019.3 1019.3 0.0
17/09:00am 20.9 17.8 10.4 51 5.7 SE 17 26 9 14 1019.5 1019.5 0.0
17/08:30am 19.7 17.5 10.9 57 4.8 SE 13 20 7 11 1019.5 1019.5 0.0
17/08:00am 18.2 15.8 11.3 64 3.7 ESE 15 22 8 12 1019.4 1019.4 0.0
17/07:30am 17.3 15.8 11.8 70 3.0 ESE 11 17 6 9 1019.4 1019.4 0.0

Other Formats:

Comma delimited format used in spreadsheet applications
http://www.bom.gov.au/fwo/IDW60801/IDW60801.94605.axf

JavaScript Object Notation format (JSON) in row-major order
http://www.bom.gov.au/fwo/IDW60801/IDW60801.94605.json